sensor_id;sensor_type;location;lat;lon;timestamp;P1;durP1;ratioP1;P2;durP2;ratioP2
9234;SDS011;4652;42.716;23.218;2023-06-19T00:06:36;26.57;;;20.03;;
9234;SDS011;4652;42.716;23.218;2023-06-19T00:13:17;8.00;;;5.60;;
9234;SDS011;4652;42.716;23.218;2023-06-19T00:20:01;6.00;;;5.50;;
9234;SDS011;4652;42.716;23.218;2023-06-19T00:26:44;7.40;;;5.60;;
9234;SDS011;4652;42.716;23.218;2023-06-19T00:33:26;8.43;;;5.37;;
9234;SDS011;4652;42.716;23.218;2023-06-19T00:40:11;6.90;;;5.53;;
9234;SDS011;4652;42.716;23.218;2023-06-19T00:46:58;6.67;;;5.77;;
9234;SDS011;4652;42.716;23.218;2023-06-19T00:53:43;5.57;;;5.07;;
9234;SDS011;4652;42.716;23.218;2023-06-19T01:08:03;5.80;;;5.20;;
9234;SDS011;4652;42.716;23.218;2023-06-19T07:08:01;4.20;;;3.70;;
9234;SDS011;4652;42.716;23.218;2023-06-19T07:14:43;3.60;;;3.30;;
9234;SDS011;4652;42.716;23.218;2023-06-19T07:21:25;6.85;;;4.03;;
9234;SDS011;4652;42.716;23.218;2023-06-19T07:28:10;4.65;;;4.25;;
9234;SDS011;4652;42.716;23.218;2023-06-19T07:34:51;4.50;;;4.10;;
9234;SDS011;4652;42.716;23.218;2023-06-19T07:41:33;4.80;;;4.40;;
9234;SDS011;4652;42.716;23.218;2023-06-19T07:48:16;7.53;;;4.60;;
9234;SDS011;4652;42.716;23.218;2023-06-19T07:54:57;4.40;;;4.00;;
9234;SDS011;4652;42.716;23.218;2023-06-19T08:01:40;4.38;;;4.07;;
9234;SDS011;4652;42.716;23.218;2023-06-19T08:08:23;4.63;;;3.75;;
9234;SDS011;4652;42.716;23.218;2023-06-19T08:15:05;4.50;;;4.10;;
9234;SDS011;4652;42.716;23.218;2023-06-19T08:21:48;5.45;;;4.20;;
9234;SDS011;4652;42.716;23.218;2023-06-19T08:28:32;4.07;;;3.67;;
9234;SDS011;4652;42.716;23.218;2023-06-19T08:35:14;4.25;;;3.95;;
9234;SDS011;4652;42.716;23.218;2023-06-19T08:41:56;5.25;;;3.95;;
9234;SDS011;4652;42.716;23.218;2023-06-19T08:48:40;4.15;;;3.85;;
9234;SDS011;4652;42.716;23.218;2023-06-19T08:55:23;5.18;;;4.10;;
9234;SDS011;4652;42.716;23.218;2023-06-19T09:02:05;4.15;;;3.85;;
9234;SDS011;4652;42.716;23.218;2023-06-19T09:08:58;4.38;;;3.97;;
9234;SDS011;4652;42.716;23.218;2023-06-19T09:15:40;4.32;;;4.03;;
9234;SDS011;4652;42.716;23.218;2023-06-19T09:22:22;4.18;;;3.60;;
9234;SDS011;4652;42.716;23.218;2023-06-19T09:29:13;4.15;;;3.85;;
9234;SDS011;4652;42.716;23.218;2023-06-19T09:35:58;5.20;;;4.70;;
9234;SDS011;4652;42.716;23.218;2023-06-19T09:42:42;6.22;;;4.03;;
9234;SDS011;4652;42.716;23.218;2023-06-19T09:49:26;4.90;;;4.50;;
9234;SDS011;4652;42.716;23.218;2023-06-19T09:56:13;4.68;;;4.28;;
9234;SDS011;4652;42.716;23.218;2023-06-19T10:02:55;6.35;;;5.22;;
9234;SDS011;4652;42.716;23.218;2023-06-19T10:09:39;7.63;;;6.65;;
9234;SDS011;4652;42.716;23.218;2023-06-19T10:16:21;5.10;;;4.70;;
9234;SDS011;4652;42.716;23.218;2023-06-19T10:23:05;4.75;;;4.35;;
9234;SDS011;4652;42.716;23.218;2023-06-19T10:29:53;4.30;;;3.90;;
9234;SDS011;4652;42.716;23.218;2023-06-19T10:36:37;5.43;;;4.57;;
9234;SDS011;4652;42.716;23.218;2023-06-19T10:43:20;4.63;;;4.30;;
9234;SDS011;4652;42.716;23.218;2023-06-19T13:08:03;5.20;;;4.47;;
9234;SDS011;4652;42.716;23.218;2023-06-19T13:14:45;4.82;;;4.30;;
9234;SDS011;4652;42.716;23.218;2023-06-19T13:21:27;5.28;;;4.30;;
9234;SDS011;4652;42.716;23.218;2023-06-19T13:28:10;4.88;;;4.47;;
9234;SDS011;4652;42.716;23.218;2023-06-19T13:34:53;5.00;;;4.00;;
9234;SDS011;4652;42.716;23.218;2023-06-19T13:41:35;4.60;;;4.20;;
9234;SDS011;4652;42.716;23.218;2023-06-19T13:48:18;4.82;;;4.28;;
9234;SDS011;4652;42.716;23.218;2023-06-19T13:55:00;4.80;;;4.40;;
9234;SDS011;4652;42.716;23.218;2023-06-19T14:01:43;4.97;;;4.20;;
9234;SDS011;4652;42.716;23.218;2023-06-19T14:08:26;6.03;;;4.80;;
9234;SDS011;4652;42.716;23.218;2023-06-19T14:15:09;4.65;;;4.28;;
9234;SDS011;4652;42.716;23.218;2023-06-19T14:21:51;4.50;;;4.10;;
9234;SDS011;4652;42.716;23.218;2023-06-19T14:28:35;4.38;;;4.07;;
9234;SDS011;4652;42.716;23.218;2023-06-19T14:35:19;4.72;;;4.15;;
9234;SDS011;4652;42.716;23.218;2023-06-19T14:42:01;4.40;;;4.10;;
9234;SDS011;4652;42.716;23.218;2023-06-19T14:48:44;4.97;;;4.57;;
9234;SDS011;4652;42.716;23.218;2023-06-19T14:55:26;5.00;;;4.70;;
9234;SDS011;4652;42.716;23.218;2023-06-19T15:02:08;5.35;;;4.88;;
9234;SDS011;4652;42.716;23.218;2023-06-19T15:08:52;5.75;;;4.97;;
9234;SDS011;4652;42.716;23.218;2023-06-19T15:15:34;7.30;;;5.03;;
9234;SDS011;4652;42.716;23.218;2023-06-19T15:22:16;7.57;;;5.80;;
9234;SDS011;4652;42.716;23.218;2023-06-19T15:28:59;6.50;;;5.75;;
9234;SDS011;4652;42.716;23.218;2023-06-19T15:35:41;6.05;;;5.53;;
9234;SDS011;4652;42.716;23.218;2023-06-19T15:42:23;6.05;;;5.22;;
9234;SDS011;4652;42.716;23.218;2023-06-19T15:49:06;5.60;;;5.10;;
9234;SDS011;4652;42.716;23.218;2023-06-19T15:55:49;5.70;;;5.20;;
9234;SDS011;4652;42.716;23.218;2023-06-19T16:02:30;8.07;;;5.57;;
9234;SDS011;4652;42.716;23.218;2023-06-19T16:09:14;6.00;;;5.40;;
9234;SDS011;4652;42.716;23.218;2023-06-19T16:15:56;5.53;;;4.80;;
9234;SDS011;4652;42.716;23.218;2023-06-19T16:22:38;5.60;;;5.00;;
9234;SDS011;4652;42.716;23.218;2023-06-19T16:29:21;5.82;;;5.28;;
9234;SDS011;4652;42.716;23.218;2023-06-19T16:36:04;6.68;;;5.65;;
9234;SDS011;4652;42.716;23.218;2023-06-19T16:42:47;8.65;;;5.85;;
9234;SDS011;4652;42.716;23.218;2023-06-19T16:49:30;5.88;;;5.38;;
9234;SDS011;4652;42.716;23.218;2023-06-19T16:56:12;6.57;;;5.97;;
9234;SDS011;4652;42.716;23.218;2023-06-19T17:02:54;6.63;;;5.43;;
9234;SDS011;4652;42.716;23.218;2023-06-19T17:09:38;7.80;;;5.93;;
9234;SDS011;4652;42.716;23.218;2023-06-19T17:16:20;6.80;;;6.13;;
9234;SDS011;4652;42.716;23.218;2023-06-19T17:23:02;6.35;;;5.70;;
9234;SDS011;4652;42.716;23.218;2023-06-19T17:29:45;21.48;;;18.08;;
9234;SDS011;4652;42.716;23.218;2023-06-19T17:36:27;6.75;;;6.15;;
9234;SDS011;4652;42.716;23.218;2023-06-19T17:43:09;6.90;;;6.20;;
9234;SDS011;4652;42.716;23.218;2023-06-19T17:49:53;7.93;;;6.57;;
9234;SDS011;4652;42.716;23.218;2023-06-19T17:56:35;6.32;;;5.80;;
9234;SDS011;4652;42.716;23.218;2023-06-19T18:03:16;7.13;;;6.43;;
9234;SDS011;4652;42.716;23.218;2023-06-19T18:10:00;10.68;;;6.93;;
9234;SDS011;4652;42.716;23.218;2023-06-19T18:16:42;8.13;;;7.05;;
9234;SDS011;4652;42.716;23.218;2023-06-19T18:23:24;7.83;;;7.23;;
9234;SDS011;4652;42.716;23.218;2023-06-19T18:30:08;8.30;;;7.60;;
9234;SDS011;4652;42.716;23.218;2023-06-19T18:36:50;7.53;;;6.83;;
9234;SDS011;4652;42.716;23.218;2023-06-19T18:43:32;10.53;;;6.73;;
9234;SDS011;4652;42.716;23.218;2023-06-19T18:50:16;7.60;;;7.00;;
9234;SDS011;4652;42.716;23.218;2023-06-19T18:56:58;8.47;;;7.63;;
9234;SDS011;4652;42.716;23.218;2023-06-19T19:08:00;8.50;;;7.60;;
9234;SDS011;4652;42.716;23.218;2023-06-19T19:14:42;9.07;;;7.93;;
9234;SDS011;4652;42.716;23.218;2023-06-19T19:21:24;8.93;;;7.87;;
9234;SDS011;4652;42.716;23.218;2023-06-19T19:28:08;8.50;;;7.60;;
9234;SDS011;4652;42.716;23.218;2023-06-19T19:34:53;8.67;;;7.80;;
9234;SDS011;4652;42.716;23.218;2023-06-19T19:41:36;9.50;;;8.50;;
9234;SDS011;4652;42.716;23.218;2023-06-19T19:48:20;9.30;;;8.40;;
9234;SDS011;4652;42.716;23.218;2023-06-19T19:55:02;9.07;;;7.50;;
9234;SDS011;4652;42.716;23.218;2023-06-19T20:01:44;9.50;;;8.60;;
9234;SDS011;4652;42.716;23.218;2023-06-19T20:08:27;9.80;;;8.80;;
9234;SDS011;4652;42.716;23.218;2023-06-19T20:15:10;8.97;;;8.07;;
9234;SDS011;4652;42.716;23.218;2023-06-19T20:21:52;9.17;;;8.20;;
9234;SDS011;4652;42.716;23.218;2023-06-19T20:28:35;9.33;;;8.33;;
9234;SDS011;4652;42.716;23.218;2023-06-19T20:35:18;10.33;;;8.77;;
9234;SDS011;4652;42.716;23.218;2023-06-19T20:42:00;9.07;;;7.63;;
9234;SDS011;4652;42.716;23.218;2023-06-19T20:48:44;9.07;;;8.23;;
9234;SDS011;4652;42.716;23.218;2023-06-19T20:55:26;9.70;;;8.77;;
9234;SDS011;4652;42.716;23.218;2023-06-19T21:02:08;9.23;;;8.03;;
9234;SDS011;4652;42.716;23.218;2023-06-19T21:08:52;11.37;;;10.17;;
9234;SDS011;4652;42.716;23.218;2023-06-19T21:15:34;9.27;;;8.47;;
9234;SDS011;4652;42.716;23.218;2023-06-19T21:22:16;9.53;;;8.50;;
9234;SDS011;4652;42.716;23.218;2023-06-19T21:29:00;9.30;;;8.40;;
9234;SDS011;4652;42.716;23.218;2023-06-19T21:35:42;8.67;;;7.87;;
9234;SDS011;4652;42.716;23.218;2023-06-19T21:42:24;8.97;;;8.07;;
9234;SDS011;4652;42.716;23.218;2023-06-19T21:49:07;9.27;;;8.37;;
9234;SDS011;4652;42.716;23.218;2023-06-19T21:55:49;9.37;;;8.47;;
9234;SDS011;4652;42.716;23.218;2023-06-19T22:02:31;9.50;;;8.57;;
9234;SDS011;4652;42.716;23.218;2023-06-19T22:09:14;9.03;;;8.23;;
9234;SDS011;4652;42.716;23.218;2023-06-19T22:15:56;9.27;;;8.20;;
9234;SDS011;4652;42.716;23.218;2023-06-19T22:22:38;9.10;;;8.23;;
9234;SDS011;4652;42.716;23.218;2023-06-19T22:29:22;9.33;;;8.43;;
9234;SDS011;4652;42.716;23.218;2023-06-19T22:36:05;9.07;;;8.17;;
9234;SDS011;4652;42.716;23.218;2023-06-19T22:42:50;9.37;;;8.37;;
9234;SDS011;4652;42.716;23.218;2023-06-19T22:49:33;9.13;;;8.33;;
9234;SDS011;4652;42.716;23.218;2023-06-19T22:56:15;9.20;;;8.20;;
9234;SDS011;4652;42.716;23.218;2023-06-19T23:02:58;8.67;;;7.83;;
9234;SDS011;4652;42.716;23.218;2023-06-19T23:09:41;9.37;;;8.37;;
9234;SDS011;4652;42.716;23.218;2023-06-19T23:16:25;9.30;;;8.20;;
9234;SDS011;4652;42.716;23.218;2023-06-19T23:23:07;9.30;;;8.40;;
9234;SDS011;4652;42.716;23.218;2023-06-19T23:29:50;8.67;;;7.87;;
9234;SDS011;4652;42.716;23.218;2023-06-19T23:36:32;8.10;;;7.30;;
9234;SDS011;4652;42.716;23.218;2023-06-19T23:43:14;10.70;;;8.67;;
9234;SDS011;4652;42.716;23.218;2023-06-19T23:49:57;8.47;;;7.77;;
9234;SDS011;4652;42.716;23.218;2023-06-19T23:56:39;8.63;;;7.90;;
